Time;durP1;ratioP1;P1;durP2;ratioP2;P2;SDS_P1;SDS_P2;PMS_P1;PMS_P2;Temp;Humidity;BMP_temperature;BMP_pressure;BME280_temperature;BME280_humidity;BME280_pressure;Samples;Min_cycle;Max_cycle;Signal;HPM_P1;HPM_P2
2023/04/01 00:00:55;;;;;;;6.23;4.57;;;9.90;99.90;;;;;;5075272;28;20931;-67
2023/04/01 00:03:23;;;;;;;7.97;4.23;;;10.00;99.90;;;;;;5075389;28;21000;-67
2023/04/01 00:05:50;;;;;;;5.23;3.83;;;9.80;99.90;;;;;;5076248;28;20464;-67
2023/04/01 00:08:18;;;;;;;4.33;3.90;;;9.70;99.90;;;;;;5075924;28;20484;-67
2023/04/01 00:10:45;;;;;;;5.73;3.50;;;9.70;99.90;;;;;;5081003;28;20831;-67
2023/04/01 00:13:12;;;;;;;4.07;3.50;;;9.70;99.90;;;;;;5081914;28;20769;-67
2023/04/01 00:15:39;;;;;;;4.70;3.77;;;9.80;99.90;;;;;;5081731;28;20454;-67
2023/04/01 00:18:08;;;;;;;4.23;3.20;;;9.80;99.90;;;;;;5081871;28;20486;-68
2023/04/01 00:20:35;;;;;;;5.70;3.50;;;9.90;99.90;;;;;;5081260;28;20515;-68
2023/04/01 00:23:02;;;;;;;11.60;3.80;;;9.80;99.90;;;;;;5081861;28;21009;-68
2023/04/01 00:25:29;;;;;;;5.97;3.60;;;9.80;99.90;;;;;;5081857;28;20986;-67
2023/04/01 00:27:56;;;;;;;3.27;2.97;;;9.90;99.90;;;;;;5081933;28;20465;-67
2023/04/01 00:30:23;;;;;;;4.27;3.10;;;9.90;99.90;;;;;;5082099;28;20556;-67
2023/04/01 00:32:53;;;;;;;7.93;4.07;;;9.90;99.90;;;;;;5081829;28;20454;-67
2023/04/01 00:35:22;;;;;;;5.23;3.47;;;9.90;99.90;;;;;;5081262;28;20458;-67
2023/04/01 00:37:49;;;;;;;6.40;3.60;;;9.80;99.90;;;;;;5080951;28;20458;-67
2023/04/01 00:40:24;;;;;;;5.07;3.73;;;9.80;99.90;;;;;;5081316;28;20930;-67
2023/04/01 00:42:51;;;;;;;6.10;3.60;;;9.80;99.90;;;;;;5081820;28;20514;-67
2023/04/01 00:45:31;;;;;;;6.97;3.77;;;9.90;99.90;;;;;;5081441;28;20937;-67
2023/04/01 00:48:02;;;;;;;6.33;3.80;;;9.90;99.90;;;;;;5081185;28;20446;-68
2023/04/01 00:50:32;;;;;;;6.70;3.77;;;9.80;99.90;;;;;;5081681;28;20477;-67
2023/04/01 00:53:01;;;;;;;5.70;3.80;;;9.80;99.90;;;;;;5082137;28;20453;-67
2023/04/01 00:55:30;;;;;;;4.37;3.63;;;9.80;99.90;;;;;;5081952;28;20549;-67
2023/04/01 00:57:59;;;;;;;4.53;3.30;;;9.90;99.90;;;;;;5082024;28;20463;-68
2023/04/01 01:00:26;;;;;;;5.60;3.40;;;9.90;99.90;;;;;;5082148;28;20454;-67
2023/04/01 01:02:53;;;;;;;5.60;3.30;;;9.90;99.90;;;;;;5081401;28;20524;-67
2023/04/01 01:05:27;;;;;;;4.90;3.50;;;9.90;99.90;;;;;;5081559;28;20462;-67
2023/04/01 01:08:04;;;;;;;5.00;3.80;;;9.80;99.90;;;;;;5081424;28;20530;-68
2023/04/01 01:10:33;;;;;;;8.40;4.03;;;9.80;99.90;;;;;;5082345;28;20465;-67
2023/04/01 01:13:08;;;;;;;6.03;3.80;;;9.80;99.90;;;;;;5082723;28;20544;-67
2023/04/01 01:15:40;;;;;;;5.10;3.43;;;9.90;99.90;;;;;;5082624;28;20882;-68
2023/04/01 01:18:17;;;;;;;5.00;3.57;;;9.90;99.90;;;;;;5082891;28;20517;-68
2023/04/01 01:21:20;;;;;;;4.63;3.70;;;9.90;99.90;;;;;;5081460;28;20475;-67
2023/04/01 01:24:09;;;;;;;8.13;4.33;;;9.90;99.90;;;;;;5078518;28;20493;-67
2023/04/01 01:26:51;;;;;;;4.87;3.67;;;9.80;99.90;;;;;;5079585;28;20468;-68
2023/04/01 01:29:43;;;;;;;6.80;3.60;;;9.80;99.90;;;;;;5079102;28;20578;-68
2023/04/01 01:32:18;;;;;;;6.40;4.10;;;9.80;99.90;;;;;;5079961;28;20439;-68
2023/04/01 01:34:54;;;;;;;5.83;5.00;;;9.80;99.90;;;;;;5079190;28;20506;-68
2023/04/01 01:37:25;;;;;;;7.77;4.10;;;9.90;99.90;;;;;;5077626;28;20441;-67
2023/04/01 01:39:56;;;;;;;6.33;3.83;;;9.90;99.90;;;;;;5077333;28;20495;-68
2023/04/01 01:42:26;;;;;;;6.73;3.57;;;9.80;99.90;;;;;;5076982;28;20443;-66
2023/04/01 01:44:56;;;;;;;7.43;4.80;;;9.80;99.90;;;;;;5076557;28;20910;-67
2023/04/01 01:47:24;;;;;;;11.67;4.33;;;9.80;99.90;;;;;;5076789;28;20504;-67
2023/04/01 01:49:53;;;;;;;5.70;4.10;;;9.80;99.90;;;;;;5076983;28;20473;-67
2023/04/01 01:52:19;;;;;;;6.90;4.23;;;9.80;99.90;;;;;;5077088;28;20454;-67
2023/04/01 01:54:52;;;;;;;5.50;4.10;;;9.80;99.90;;;;;;5076894;28;20792;-67
2023/04/01 01:57:22;;;;;;;5.07;4.00;;;9.80;99.90;;;;;;5077683;28;20565;-67
2023/04/01 01:59:50;;;;;;;6.27;3.90;;;9.80;99.90;;;;;;5076581;28;20450;-67
2023/04/01 02:02:18;;;;;;;8.40;4.17;;;9.90;99.90;;;;;;5076776;28;20488;-67
2023/04/01 02:04:46;;;;;;;10.90;4.60;;;9.90;99.90;;;;;;5076833;28;20792;-68
2023/04/01 02:07:18;;;;;;;6.10;3.63;;;9.90;99.90;;;;;;5076695;28;20930;-66
2023/04/01 02:09:45;;;;;;;6.07;3.30;;;10.00;99.90;;;;;;5076635;28;20466;-67
2023/04/01 02:12:16;;;;;;;7.10;4.07;;;10.00;99.90;;;;;;5077019;28;20834;-67
2023/04/01 02:14:47;;;;;;;7.30;3.80;;;9.90;99.90;;;;;;5076841;28;20761;-67
2023/04/01 02:17:17;;;;;;;3.30;2.90;;;9.80;99.90;;;;;;5076932;28;20439;-67
2023/04/01 02:19:48;;;;;;;5.23;2.87;;;9.80;99.90;;;;;;5076936;28;20439;-67
2023/04/01 02:22:19;;;;;;;5.37;4.40;;;9.80;99.90;;;;;;5077209;28;20769;-68
2023/04/01 02:24:46;;;;;;;5.30;3.00;;;9.80;99.90;;;;;;5077156;28;20443;-68
2023/04/01 02:27:15;;;;;;;6.60;2.87;;;9.80;99.90;;;;;;5077503;28;20458;-68
2023/04/01 02:29:42;;;;;;;4.13;3.10;;;9.60;99.90;;;;;;5077334;28;20803;-68
2023/04/01 02:32:10;;;;;;;6.67;3.10;;;9.60;99.90;;;;;;5077333;28;20458;-68
2023/04/01 02:34:37;;;;;;;5.00;3.00;;;9.60;99.90;;;;;;5076680;28;20537;-67
2023/04/01 02:37:05;;;;;;;9.43;3.33;;;9.60;99.90;;;;;;5077508;28;20536;-67
2023/04/01 02:39:32;;;;;;;6.43;3.53;;;9.60;99.90;;;;;;5077867;28;20454;-67
2023/04/01 02:41:59;;;;;;;5.47;3.17;;;9.60;99.90;;;;;;5077450;28;20462;-68
2023/04/01 02:44:27;;;;;;;4.97;3.70;;;9.60;99.90;;;;;;5077719;28;20454;-68
2023/04/01 02:46:54;;;;;;;5.70;4.07;;;9.60;99.90;;;;;;5078101;28;20945;-68
2023/04/01 02:49:21;;;;;;;4.40;3.13;;;9.50;99.90;;;;;;5078216;28;20521;-67
2023/04/01 02:51:48;;;;;;;7.70;4.60;;;9.50;99.90;;;;;;5077853;28;20458;-68
2023/04/01 02:54:14;;;;;;;5.33;3.90;;;9.50;99.90;;;;;;5077830;28;20473;-67
2023/04/01 02:56:41;;;;;;;6.97;3.73;;;9.50;99.90;;;;;;5077206;28;20458;-67
2023/04/01 02:59:08;;;;;;;6.23;3.03;;;9.60;99.90;;;;;;5077653;28;20450;-67
2023/04/01 03:01:36;;;;;;;4.90;3.13;;;9.60;99.90;;;;;;5077863;28;20545;-67
2023/04/01 03:04:04;;;;;;;7.13;3.40;;;9.60;99.90;;;;;;5077336;28;20545;-68
2023/04/01 03:06:31;;;;;;;6.43;3.37;;;9.60;99.90;;;;;;5077117;28;20458;-67
2023/04/01 03:08:58;;;;;;;4.23;3.23;;;9.70;99.90;;;;;;5076515;28;20454;-67
2023/04/01 03:11:26;;;;;;;3.97;3.30;;;9.60;99.90;;;;;;5076822;28;20458;-67
2023/04/01 03:13:52;;;;;;;6.27;3.90;;;9.60;99.90;;;;;;5076928;28;20450;-67
2023/04/01 03:16:19;;;;;;;5.70;3.83;;;9.60;99.90;;;;;;5076423;28;20872;-67
2023/04/01 03:18:49;;;;;;;6.17;3.80;;;9.60;99.90;;;;;;5076855;28;20454;-67
2023/04/01 03:21:17;;;;;;;4.10;3.40;;;9.70;99.90;;;;;;5076006;28;20511;-67
2023/04/01 03:23:44;;;;;;;6.60;3.90;;;9.70;99.90;;;;;;5076407;28;20549;-67
2023/04/01 03:26:11;;;;;;;4.60;3.37;;;9.70;99.90;;;;;;5075753;28;20469;-67
2023/04/01 03:28:38;;;;;;;6.90;4.13;;;9.60;99.90;;;;;;5075772;28;20453;-67
2023/04/01 03:31:05;;;;;;;9.87;4.60;;;9.60;99.90;;;;;;5075562;28;20576;-67
2023/04/01 03:33:32;;;;;;;6.87;4.20;;;9.60;99.90;;;;;;5075701;28;20464;-67
2023/04/01 03:36:01;;;;;;;10.90;5.23;;;9.70;99.90;;;;;;5075889;28;20458;-67
2023/04/01 03:38:28;;;;;;;8.80;4.10;;;9.80;99.90;;;;;;5076165;28;20560;-67
2023/04/01 03:40:54;;;;;;;6.90;4.83;;;9.80;99.90;;;;;;5075634;28;20468;-67
2023/04/01 03:43:22;;;;;;;7.73;4.40;;;9.70;99.90;;;;;;5075201;28;20450;-67
2023/04/01 03:45:50;;;;;;;8.63;4.77;;;9.70;99.90;;;;;;5075266;28;20779;-68
2023/04/01 03:48:17;;;;;;;11.10;5.17;;;9.80;99.90;;;;;;5075456;28;20772;-67
2023/04/01 03:50:45;;;;;;;9.90;5.03;;;9.70;99.90;;;;;;5075283;28;20478;-67
2023/04/01 03:53:13;;;;;;;11.57;4.90;;;9.70;99.90;;;;;;5075280;28;20453;-68
2023/04/01 03:55:40;;;;;;;6.63;4.40;;;9.70;99.90;;;;;;5075457;28;20464;-67
2023/04/01 03:58:08;;;;;;;10.50;5.07;;;9.80;99.90;;;;;;5075773;28;20464;-67
2023/04/01 04:00:35;;;;;;;8.90;4.83;;;9.90;99.90;;;;;;5075460;28;20537;-68
2023/04/01 04:03:02;;;;;;;7.33;4.77;;;9.90;99.90;;;;;;5075031;28;20543;-67
2023/04/01 04:05:29;;;;;;;14.43;4.30;;;9.90;99.90;;;;;;5076228;28;20462;-67
2023/04/01 04:07:56;;;;;;;7.47;4.10;;;9.90;99.90;;;;;;5074916;28;20454;-67
2023/04/01 04:10:25;;;;;;;8.80;4.00;;;9.80;99.90;;;;;;5074994;28;20488;-68
2023/04/01 04:12:52;;;;;;;8.67;4.90;;;9.80;99.90;;;;;;5075007;28;20454;-67
2023/04/01 04:15:19;;;;;;;6.00;4.47;;;9.90;99.90;;;;;;5075399;28;20462;-68
2023/04/01 04:17:46;;;;;;;5.07;3.90;;;9.80;99.90;;;;;;5075279;28;20501;-67
2023/04/01 04:20:13;;;;;;;7.00;4.07;;;9.80;99.90;;;;;;5075391;28;20446;-67
2023/04/01 04:22:40;;;;;;;9.23;4.50;;;9.80;99.90;;;;;;5075180;28;20887;-67
2023/04/01 04:25:08;;;;;;;6.27;4.27;;;9.70;99.90;;;;;;5075192;28;20971;-67
2023/04/01 04:27:36;;;;;;;5.77;3.97;;;9.60;99.90;;;;;;5075636;28;20881;-67
2023/04/01 04:30:04;;;;;;;7.10;4.27;;;9.60;99.90;;;;;;5075497;28;20478;-68
2023/04/01 04:32:31;;;;;;;7.13;4.80;;;9.60;99.90;;;;;;5076749;28;20792;-68
2023/04/01 04:34:58;;;;;;;11.63;6.17;;;9.60;99.90;;;;;;5077109;28;20469;-68
2023/04/01 04:37:26;;;;;;;10.03;5.20;;;9.60;99.90;;;;;;5076661;28;20529;-68
2023/04/01 04:39:53;;;;;;;8.87;6.10;;;9.60;99.90;;;;;;5076285;28;20450;-68
2023/04/01 04:42:19;;;;;;;8.63;5.47;;;9.60;99.90;;;;;;5076396;28;20454;-68
2023/04/01 04:44:48;;;;;;;10.63;6.77;;;9.70;99.90;;;;;;5076083;28;20556;-68
2023/04/01 04:47:14;;;;;;;13.50;6.50;;;9.80;99.90;;;;;;5075998;28;20465;-67
2023/04/01 04:49:41;;;;;;;8.00;5.87;;;9.90;99.90;;;;;;5075999;28;20792;-67
2023/04/01 04:52:08;;;;;;;15.50;7.10;;;9.80;99.90;;;;;;5075402;28;20464;-67
2023/04/01 04:54:35;;;;;;;9.90;5.80;;;9.80;99.90;;;;;;5075318;28;20464;-67
2023/04/01 04:57:02;;;;;;;11.63;6.70;;;9.80;99.90;;;;;;5076971;28;20468;-67
2023/04/01 04:59:28;;;;;;;12.30;6.57;;;9.80;99.90;;;;;;5078806;28;20468;-67
2023/04/01 05:01:57;;;;;;;10.50;6.63;;;9.80;99.90;;;;;;5079831;28;20561;-67
2023/04/01 05:04:23;;;;;;;9.60;7.17;;;9.80;99.90;;;;;;5081125;28;20450;-67
2023/04/01 05:06:51;;;;;;;11.33;7.33;;;9.90;99.90;;;;;;5080538;28;20458;-67
2023/04/01 05:09:18;;;;;;;14.93;7.50;;;9.80;99.90;;;;;;5080738;28;20484;-67
2023/04/01 05:11:45;;;;;;;12.10;7.83;;;9.80;99.90;;;;;;5080538;28;20505;-67
2023/04/01 05:14:15;;;;;;;10.23;7.37;;;9.80;99.90;;;;;;5081663;28;20461;-67
2023/04/01 05:16:42;;;;;;;11.93;7.60;;;9.90;99.90;;;;;;5081955;28;20473;-67
2023/04/01 05:19:10;;;;;;;13.47;8.00;;;9.90;99.90;;;;;;5077985;28;20768;-67
2023/04/01 05:21:37;;;;;;;13.07;7.17;;;9.80;99.90;;;;;;5079249;28;20537;-67
2023/04/01 05:24:08;;;;;;;14.23;7.37;;;9.80;99.90;;;;;;5079246;28;20533;-67
2023/04/01 05:26:34;;;;;;;12.60;7.00;;;9.80;99.90;;;;;;5078509;28;20452;-67
2023/04/01 05:29:01;;;;;;;8.80;7.17;;;9.80;99.90;;;;;;5078347;28;20845;-68
2023/04/01 05:31:28;;;;;;;9.23;7.73;;;9.70;99.90;;;;;;5078258;28;20489;-68
2023/04/01 05:33:55;;;;;;;12.63;7.20;;;9.70;99.90;;;;;;5079389;28;20468;-68
2023/04/01 05:36:23;;;;;;;12.27;7.10;;;9.80;99.90;;;;;;5079377;28;20465;-67
2023/04/01 05:38:50;;;;;;;12.00;7.50;;;9.80;99.90;;;;;;5079366;28;20518;-67
2023/04/01 05:41:17;;;;;;;11.03;7.30;;;9.80;99.90;;;;;;5079885;28;20537;-68
2023/04/01 05:43:44;;;;;;;16.17;12.00;;;9.90;99.90;;;;;;5078939;28;20796;-68
2023/04/01 05:46:11;;;;;;;13.03;7.20;;;10.00;99.90;;;;;;5079451;28;20468;-68
2023/04/01 05:48:38;;;;;;;10.37;6.90;;;10.00;99.90;;;;;;5079241;28;20479;-68
2023/04/01 05:51:05;;;;;;;18.07;7.93;;;10.00;99.90;;;;;;5077945;28;20478;-68
2023/04/01 05:53:33;;;;;;;24.87;17.93;;;10.10;99.90;;;;;;5078065;28;20457;-68
2023/04/01 05:56:03;;;;;;;30.50;17.90;;;10.00;99.90;;;;;;5077997;28;20454;-68
2023/04/01 05:58:30;;;;;;;15.33;10.90;;;10.00;99.90;;;;;;5078156;28;20826;-66
2023/04/01 06:01:02;;;;;;;19.07;13.00;;;10.10;99.90;;;;;;5078117;28;20450;-67
2023/04/01 06:03:29;;;;;;;20.13;13.97;;;10.10;99.90;;;;;;5077851;28;20482;-67
2023/04/01 06:05:56;;;;;;;14.70;7.57;;;10.10;99.90;;;;;;5077590;28;20469;-67
2023/04/01 06:08:23;;;;;;;12.10;7.40;;;10.20;99.90;;;;;;5078003;28;20469;-68
2023/04/01 06:11:03;;;;;;;13.03;7.57;;;10.20;99.90;;;;;;5077646;28;20573;-68
2023/04/01 06:13:44;;;;;;;12.70;7.40;;;10.20;99.90;;;;;;5077723;28;20517;-68
2023/04/01 06:16:19;;;;;;;17.43;8.13;;;10.30;99.90;;;;;;5077908;28;20454;-68
2023/04/01 06:19:14;;;;;;;16.30;8.50;;;10.10;99.90;;;;;;5078056;28;20504;-68
2023/04/01 06:22:03;;;;;;;13.87;7.90;;;10.20;99.90;;;;;;5077879;28;20438;-68
2023/04/01 06:24:43;;;;;;;17.03;8.93;;;10.20;99.90;;;;;;5077855;28;20444;-68
2023/04/01 06:27:21;;;;;;;13.73;7.77;;;10.10;99.90;;;;;;5077977;28;20948;-68
2023/04/01 06:29:59;;;;;;;9.20;7.27;;;10.20;99.90;;;;;;5077522;28;20478;-68
2023/04/01 06:32:52;;;;;;;11.30;7.30;;;10.20;99.90;;;;;;5077704;28;20468;-68
2023/04/01 06:35:32;;;;;;;12.30;7.77;;;10.20;99.90;;;;;;5077424;28;20548;-68
2023/04/01 06:38:16;;;;;;;12.80;7.63;;;10.20;99.90;;;;;;5077858;28;20453;-68
2023/04/01 06:41:14;;;;;;;14.60;8.20;;;10.10;99.90;;;;;;5077766;28;20434;-68
2023/04/01 06:43:53;;;;;;;10.10;7.20;;;10.00;99.90;;;;;;5075276;28;20465;-67
2023/04/01 06:46:29;;;;;;;11.70;7.90;;;10.10;99.90;;;;;;5076620;28;20930;-67
2023/04/01 06:49:06;;;;;;;14.53;8.60;;;10.10;99.90;;;;;;5076708;28;20442;-68
2023/04/01 06:51:44;;;;;;;15.07;7.97;;;10.20;99.90;;;;;;5076018;28;20472;-67
2023/04/01 06:54:16;;;;;;;12.23;8.17;;;10.20;99.90;;;;;;5076265;28;20835;-68
2023/04/01 06:56:47;;;;;;;13.00;7.87;;;10.20;99.90;;;;;;5075924;28;20525;-68
2023/04/01 06:59:20;;;;;;;14.30;9.17;;;10.30;99.90;;;;;;5075910;28;20525;-68
2023/04/01 07:01:50;;;;;;;14.73;9.47;;;10.40;99.90;;;;;;5075456;28;20515;-68
2023/04/01 07:04:22;;;;;;;14.60;8.87;;;10.40;99.90;;;;;;5076121;28;20464;-69
2023/04/01 07:06:54;;;;;;;20.70;8.50;;;10.30;99.90;;;;;;5075548;28;20788;-67
2023/04/01 07:09:25;;;;;;;18.00;13.37;;;10.40;99.90;;;;;;5075148;28;20453;-68
2023/04/01 07:11:57;;;;;;;17.00;9.13;;;10.40;99.90;;;;;;5074809;28;20462;-68
2023/04/01 07:14:33;;;;;;;14.93;10.80;;;10.40;99.90;;;;;;5075335;28;20475;-68
2023/04/01 07:17:06;;;;;;;14.23;8.97;;;10.40;99.90;;;;;;5075319;28;20442;-68
2023/04/01 07:19:37;;;;;;;16.30;10.13;;;10.40;99.90;;;;;;5074573;28;20516;-68
2023/04/01 07:22:06;;;;;;;17.00;10.40;;;10.40;99.90;;;;;;5075099;28;20438;-68
2023/04/01 07:24:36;;;;;;;17.20;11.70;;;10.50;99.90;;;;;;5075354;28;20453;-68
2023/04/01 07:27:06;;;;;;;14.97;10.50;;;10.50;99.90;;;;;;5075803;28;20883;-68
2023/04/01 07:29:34;;;;;;;16.10;10.10;;;10.50;99.90;;;;;;5075170;28;20455;-68
2023/04/01 07:32:27;;;;;;;17.03;11.40;;;10.40;99.90;;;;;;5074624;28;21015;-68
2023/04/01 07:35:09;;;;;;;15.00;10.30;;;10.40;99.90;;;;;;5075940;28;20746;-68
2023/04/01 07:37:45;;;;;;;13.27;9.73;;;10.40;99.90;;;;;;5074851;28;20522;-68
2023/04/01 07:40:26;;;;;;;13.30;10.67;;;10.50;99.90;;;;;;5075295;28;20488;-68
2023/04/01 07:43:06;;;;;;;26.80;17.57;;;10.50;99.90;;;;;;5075331;28;20453;-68
2023/04/01 07:45:41;;;;;;;14.73;9.30;;;10.60;99.90;;;;;;5075334;28;20457;-67
2023/04/01 07:48:19;;;;;;;13.93;9.50;;;10.60;99.90;;;;;;5075008;28;20782;-68
2023/04/01 07:50:55;;;;;;;10.77;8.77;;;10.50;99.90;;;;;;5074496;28;20573;-67
2023/04/01 07:53:30;;;;;;;12.27;8.40;;;10.60;99.90;;;;;;5075055;28;20525;-67
2023/04/01 07:56:06;;;;;;;17.67;10.27;;;10.60;99.90;;;;;;5074733;28;20539;-68
2023/04/01 07:58:40;;;;;;;14.77;10.80;;;10.60;99.90;;;;;;5074810;28;20533;-67
2023/04/01 08:01:18;;;;;;;22.53;12.10;;;10.60;99.90;;;;;;5074857;28;20878;-67
2023/04/01 08:04:00;;;;;;;12.87;8.20;;;10.50;99.90;;;;;;5074305;28;20504;-68
2023/04/01 08:06:33;;;;;;;9.97;7.10;;;10.40;99.90;;;;;;5075461;28;20453;-68
2023/04/01 08:09:08;;;;;;;8.87;7.13;;;10.40;99.90;;;;;;5074387;28;20442;-68
2023/04/01 08:11:53;;;;;;;6.80;4.40;;;10.30;99.90;;;;;;5074752;28;20496;-69
2023/04/01 08:14:28;;;;;;;5.70;4.33;;;10.20;99.90;;;;;;5074497;28;20500;-68
2023/04/01 08:17:03;;;;;;;7.50;4.40;;;10.20;99.90;;;;;;5074713;28;20957;-67
2023/04/01 08:19:37;;;;;;;15.97;9.47;;;10.20;99.90;;;;;;5074892;28;20442;-69
2023/04/01 08:22:10;;;;;;;20.90;13.73;;;10.10;99.90;;;;;;5074627;28;20440;-67
2023/04/01 08:24:41;;;;;;;18.67;11.40;;;10.10;99.90;;;;;;5074661;28;20438;-68
2023/04/01 08:27:16;;;;;;;21.53;16.87;;;10.00;99.90;;;;;;5075107;28;20533;-68
2023/04/01 08:29:49;;;;;;;13.70;9.17;;;10.00;99.90;;;;;;5074620;28;20442;-68
2023/04/01 08:32:23;;;;;;;14.67;10.03;;;10.00;99.90;;;;;;5078580;28;20466;-68
2023/04/01 08:34:59;;;;;;;14.37;10.17;;;10.00;99.90;;;;;;5078397;28;20901;-69
2023/04/01 08:37:32;;;;;;;16.27;9.87;;;10.00;99.90;;;;;;5078596;28;20446;-68
2023/04/01 08:40:15;;;;;;;19.60;12.00;;;10.00;99.90;;;;;;5078144;28;20970;-69
2023/04/01 08:43:02;;;;;;;16.83;11.77;;;10.00;99.90;;;;;;5077979;28;20434;-69
2023/04/01 08:45:57;;;;;;;20.33;13.83;;;10.00;99.90;;;;;;5078373;28;20514;-68
2023/04/01 08:48:54;;;;;;;18.00;12.80;;;10.00;99.90;;;;;;5078503;28;20834;-69
2023/04/01 08:51:57;;;;;;;23.17;13.90;;;10.10;99.90;;;;;;5063122;28;20535;-68
2023/04/01 08:55:03;;;;;;;18.50;12.43;;;10.00;99.90;;;;;;5078356;28;20525;-68
2023/04/01 08:57:46;;;;;;;19.13;12.77;;;10.10;99.90;;;;;;5077948;28;20512;-68
2023/04/01 09:00:24;;;;;;;22.90;14.70;;;10.10;99.90;;;;;;5078015;28;20525;-68
2023/04/01 09:03:34;;;;;;;22.07;13.70;;;10.20;99.90;;;;;;5077620;28;20584;-68
2023/04/01 09:06:23;;;;;;;20.47;12.77;;;10.30;99.90;;;;;;5076768;28;20468;-68
2023/04/01 09:09:18;;;;;;;18.13;12.57;;;10.30;99.90;;;;;;5077577;28;20529;-68
2023/04/01 09:12:19;;;;;;;19.03;14.23;;;10.30;99.90;;;;;;5077571;28;20560;-68
2023/04/01 09:15:16;;;;;;;15.90;12.30;;;10.30;99.90;;;;;;5062725;28;20454;-67
2023/04/01 09:18:09;;;;;;;16.60;11.87;;;10.30;99.90;;;;;;5078347;28;20521;-68
2023/04/01 09:21:15;;;;;;;16.73;13.00;;;10.40;99.90;;;;;;5071563;28;20835;-69
2023/04/01 09:24:00;;;;;;;31.57;25.90;;;10.40;99.90;;;;;;5016036;28;20463;-67
2023/04/01 09:26:47;;;;;;;16.73;13.20;;;10.30;99.90;;;;;;5070540;28;20479;-68
2023/04/01 09:29:29;;;;;;;19.10;13.63;;;10.30;99.90;;;;;;5077454;28;20445;-68
2023/04/01 09:32:23;;;;;;;18.63;14.83;;;10.30;99.90;;;;;;5077088;28;20462;-67
2023/04/01 09:34:55;;;;;;;19.40;14.33;;;10.30;99.90;;;;;;5077626;28;20442;-69
2023/04/01 09:37:35;;;;;;;18.23;14.47;;;10.40;99.90;;;;;;5077267;28;20501;-68
2023/04/01 09:40:18;;;;;;;16.20;12.83;;;10.30;99.90;;;;;;5077220;28;20759;-69
2023/04/01 09:42:50;;;;;;;16.17;12.80;;;10.40;99.90;;;;;;5076538;28;20537;-68
2023/04/01 09:45:43;;;;;;;14.70;12.50;;;10.40;99.90;;;;;;5077110;28;20450;-69
2023/04/01 09:48:29;;;;;;;15.20;12.03;;;10.40;99.90;;;;;;5077040;28;20443;-69
2023/04/01 09:51:05;;;;;;;14.90;11.40;;;10.40;99.90;;;;;;5076947;28;20453;-68
2023/04/01 09:53:53;;;;;;;14.57;11.00;;;10.30;99.90;;;;;;5077013;28;20839;-68
2023/04/01 09:57:00;;;;;;;11.00;9.57;;;10.20;99.90;;;;;;5077243;28;20442;-68
2023/04/01 10:00:04;;;;;;;13.37;9.90;;;10.20;99.90;;;;;;5046590;28;20450;-68
2023/04/01 10:03:02;;;;;;;12.33;9.80;;;10.30;99.90;;;;;;5077521;28;20988;-68
2023/04/01 10:06:17;;;;;;;11.67;10.20;;;10.40;99.90;;;;;;5052665;28;20935;-68
2023/04/01 10:09:28;;;;;;;12.13;10.00;;;10.40;99.90;;;;;;5051574;28;20832;-69
2023/04/01 10:12:26;;;;;;;11.93;10.30;;;10.20;99.90;;;;;;5048981;28;20565;-68
2023/04/01 10:15:31;;;;;;;14.90;10.73;;;10.00;99.90;;;;;;5078276;28;20452;-69
2023/04/01 10:18:18;;;;;;;12.13;10.07;;;10.00;99.90;;;;;;5078379;28;20478;-68
2023/04/01 10:21:03;;;;;;;13.27;10.73;;;10.00;99.90;;;;;;5078549;28;20507;-69
2023/04/01 10:23:54;;;;;;;14.20;10.90;;;10.10;99.90;;;;;;5078753;28;20443;-69
2023/04/01 10:26:41;;;;;;;13.63;10.60;;;10.10;99.90;;;;;;5076709;28;20564;-69
2023/04/01 10:29:37;;;;;;;14.60;11.87;;;10.00;99.90;;;;;;5079725;28;20522;-69
2023/04/01 10:32:39;;;;;;;16.00;13.10;;;9.90;99.90;;;;;;5080722;28;20546;-69
2023/04/01 10:35:35;;;;;;;17.20;13.50;;;9.80;99.90;;;;;;5079175;28;20444;-70
2023/04/01 10:38:37;;;;;;;17.07;14.50;;;9.80;99.90;;;;;;5079102;28;20780;-69
2023/04/01 10:41:45;;;;;;;18.13;14.47;;;9.70;99.90;;;;;;5068007;28;20643;-69
2023/04/01 10:44:56;;;;;;;16.03;13.37;;;9.60;99.90;;;;;;5016143;28;20840;-69
2023/04/01 10:48:07;;;;;;;15.60;12.70;;;9.60;99.90;;;;;;5077250;28;20460;-69
2023/04/01 10:51:02;;;;;;;20.20;12.97;;;9.60;99.90;;;;;;5076387;28;20441;-68
2023/04/01 10:53:39;;;;;;;15.50;13.80;;;9.60;99.90;;;;;;5076889;28;20549;-68
2023/04/01 10:56:37;;;;;;;16.10;13.40;;;9.60;99.90;;;;;;5077718;28;20439;-68
2023/04/01 10:59:32;;;;;;;15.63;12.03;;;9.60;99.90;;;;;;5077025;28;20476;-68
2023/04/01 11:02:42;;;;;;;16.20;13.40;;;9.60;99.90;;;;;;5076374;28;20478;-67
2023/04/01 11:05:54;;;;;;;16.50;13.07;;;9.60;99.90;;;;;;5075263;28;20442;-67
2023/04/01 11:09:13;;;;;;;18.50;13.00;;;9.60;99.90;;;;;;5075624;28;20454;-67
2023/04/01 11:12:14;;;;;;;17.43;13.87;;;9.50;99.90;;;;;;5075730;28;20557;-67
2023/04/01 11:15:21;;;;;;;15.83;12.30;;;9.60;99.90;;;;;;5075091;28;20441;-67
2023/04/01 11:18:48;;;;;;;15.83;12.90;;;9.60;99.90;;;;;;5075732;28;20541;-68
2023/04/01 11:21:48;;;;;;;15.73;12.37;;;9.50;99.90;;;;;;5075135;28;20443;-68
2023/04/01 11:24:36;;;;;;;15.40;12.50;;;9.50;99.90;;;;;;5075219;28;20454;-68
2023/04/01 11:27:19;;;;;;;16.33;12.47;;;9.50;99.90;;;;;;5075410;28;20449;-67
2023/04/01 11:30:04;;;;;;;16.00;13.37;;;9.40;99.90;;;;;;5075076;28;20449;-67
2023/04/01 11:32:42;;;;;;;15.30;12.60;;;9.40;99.90;;;;;;5075431;28;20471;-67
2023/04/01 11:35:48;;;;;;;16.60;13.70;;;9.50;99.90;;;;;;5076329;28;20438;-67
2023/04/01 11:38:33;;;;;;;17.90;13.93;;;9.50;99.90;;;;;;5058465;28;20616;-67
2023/04/01 11:41:25;;;;;;;17.90;14.90;;;9.50;99.90;;;;;;5076936;28;20454;-67
2023/04/01 11:44:12;;;;;;;17.37;14.97;;;9.40;99.90;;;;;;5076290;28;20434;-68
2023/04/01 11:47:01;;;;;;;16.63;14.20;;;9.40;99.90;;;;;;5075658;28;20492;-67
2023/04/01 11:49:43;;;;;;;17.10;13.90;;;9.40;99.90;;;;;;5075406;28;20538;-67
2023/04/01 11:52:24;;;;;;;18.57;14.27;;;9.40;99.90;;;;;;5075814;28;20861;-67
2023/04/01 11:55:21;;;;;;;18.33;14.80;;;9.40;99.90;;;;;;5075235;28;20453;-68
2023/04/01 11:58:14;;;;;;;16.90;14.37;;;9.40;99.90;;;;;;5075062;28;20443;-67
2023/04/01 12:01:09;;;;;;;15.87;13.73;;;9.30;99.90;;;;;;5075321;28;20825;-67
2023/04/01 12:04:02;;;;;;;17.97;15.07;;;9.20;99.90;;;;;;5074480;28;20585;-68
2023/04/01 12:06:37;;;;;;;16.43;14.10;;;9.20;99.90;;;;;;5041353;28;20541;-68
2023/04/01 12:09:14;;;;;;;18.97;14.93;;;9.20;99.90;;;;;;5074364;28;20909;-67
2023/04/01 12:11:52;;;;;;;18.63;13.90;;;9.20;99.90;;;;;;5074588;28;20768;-67
2023/04/01 12:14:27;;;;;;;14.53;13.03;;;9.20;99.90;;;;;;5074635;28;20452;-67
2023/04/01 12:17:04;;;;;;;14.33;12.83;;;9.30;99.90;;;;;;5074303;28;20462;-67
2023/04/01 12:19:41;;;;;;;14.57;13.07;;;9.40;99.90;;;;;;5074592;28;20466;-67
2023/04/01 12:22:43;;;;;;;14.63;12.50;;;9.40;99.90;;;;;;5074631;28;20448;-67
2023/04/01 12:25:23;;;;;;;17.37;13.57;;;9.40;99.90;;;;;;5074614;28;20536;-68
2023/04/01 12:28:01;;;;;;;15.00;13.50;;;9.30;99.90;;;;;;5074302;28;20442;-68
2023/04/01 12:30:38;;;;;;;15.93;14.00;;;9.30;99.90;;;;;;5074466;28;20434;-67
2023/04/01 12:33:45;;;;;;;14.53;13.03;;;9.20;99.90;;;;;;5074968;28;20497;-67
2023/04/01 12:36:32;;;;;;;17.00;14.60;;;9.10;99.90;;;;;;5074623;28;20533;-68
2023/04/01 12:39:20;;;;;;;16.43;13.60;;;9.00;99.90;;;;;;5075526;28;20533;-68
2023/04/01 12:41:54;;;;;;;16.43;13.60;;;9.00;99.90;;;;;;5075771;28;20492;-67
2023/04/01 12:44:37;;;;;;;16.50;14.53;;;9.10;99.90;;;;;;5075532;28;20490;-66
2023/04/01 12:47:23;;;;;;;18.13;14.03;;;9.00;99.90;;;;;;5075444;28;20442;-67
2023/04/01 12:50:18;;;;;;;16.83;15.03;;;9.00;99.90;;;;;;5075296;28;20924;-68
2023/04/01 12:52:56;;;;;;;17.03;14.77;;;9.00;99.90;;;;;;5075055;28;20470;-67
2023/04/01 12:55:41;;;;;;;16.00;14.00;;;9.00;99.90;;;;;;5075349;28;20918;-67
2023/04/01 12:58:45;;;;;;;18.23;14.67;;;9.00;99.90;;;;;;5075019;28;20503;-68
2023/04/01 13:01:26;;;;;;;19.30;15.33;;;8.90;99.90;;;;;;5074976;28;20906;-68
2023/04/01 13:04:29;;;;;;;17.60;14.70;;;8.90;99.90;;;;;;5075451;28;20427;-67
2023/04/01 13:07:27;;;;;;;20.47;15.73;;;8.90;99.90;;;;;;5075467;28;20911;-67
2023/04/01 13:10:03;;;;;;;16.90;13.50;;;8.90;99.90;;;;;;5059166;28;20533;-67
2023/04/01 13:12:51;;;;;;;17.97;15.20;;;8.80;99.90;;;;;;5074598;28;20474;-68
2023/04/01 13:15:33;;;;;;;17.93;15.00;;;8.90;99.90;;;;;;5074463;28;20525;-67
2023/04/01 13:18:12;;;;;;;16.63;14.87;;;8.90;99.90;;;;;;5076293;28;20460;-69
2023/04/01 13:20:46;;;;;;;17.90;14.67;;;8.90;99.90;;;;;;5078029;28;20534;-67
2023/04/01 13:23:26;;;;;;;17.53;14.03;;;8.90;99.90;;;;;;5078943;28;20438;-67
2023/04/01 13:26:05;;;;;;;16.53;14.03;;;8.90;99.90;;;;;;5078306;28;20442;-68
2023/04/01 13:28:38;;;;;;;17.30;14.93;;;8.90;99.90;;;;;;5078264;28;20538;-68
2023/04/01 13:31:15;;;;;;;14.90;13.00;;;8.90;99.90;;;;;;5077838;28;20921;-68
2023/04/01 13:33:51;;;;;;;15.30;12.80;;;8.90;99.90;;;;;;5077658;28;20477;-67
2023/04/01 13:36:29;;;;;;;32.20;22.70;;;8.80;99.90;;;;;;5077134;28;20930;-67